createdAt,value
2024-05-09T00:00:45.297Z,4.55
2024-05-09T00:03:33.086Z,3.63
2024-05-09T00:06:01.311Z,2.90
2024-05-09T00:08:29.198Z,3.40
2024-05-09T00:10:57.550Z,3.10
2024-05-09T00:13:25.197Z,3.30
2024-05-09T00:15:53.193Z,3.20
2024-05-09T00:18:21.002Z,3.20
2024-05-09T00:20:49.162Z,3.53
2024-05-09T00:23:16.794Z,3.70
2024-05-09T00:25:45.482Z,2.90
2024-05-09T00:28:13.468Z,3.50
2024-05-09T00:30:41.668Z,3.20
2024-05-09T00:33:10.743Z,3.05
2024-05-09T00:35:41.543Z,2.83
2024-05-09T00:38:09.411Z,2.97
2024-05-09T00:40:43.274Z,2.58
2024-05-09T00:43:13.127Z,3.05
2024-05-09T00:45:42.205Z,3.58
2024-05-09T00:48:12.565Z,2.65
2024-05-09T00:50:42.935Z,2.60
2024-05-09T00:53:15.218Z,2.53
2024-05-09T00:55:44.148Z,3.10
2024-05-09T00:58:12.790Z,2.72
2024-05-09T01:00:41.840Z,3.15
2024-05-09T01:03:13.997Z,3.35
2024-05-09T01:05:43.622Z,2.83
2024-05-09T01:08:11.956Z,2.95
2024-05-09T01:10:43.759Z,2.60
2024-05-09T01:13:12.819Z,2.88
2024-05-09T01:15:41.024Z,2.20
2024-05-09T01:18:11.044Z,2.03
2024-05-09T01:20:43.219Z,2.38
2024-05-09T01:23:15.120Z,2.80
2024-05-09T01:25:45.612Z,2.75
2024-05-09T01:28:14.165Z,2.47
2024-05-09T01:30:42.221Z,2.45
2024-05-09T01:33:11.610Z,2.63
2024-05-09T01:35:42.210Z,2.60
2024-05-09T01:38:13.847Z,3.80
2024-05-09T01:40:42.594Z,2.80
2024-05-09T01:43:11.669Z,3.25
2024-05-09T01:45:41.456Z,3.38
2024-05-09T01:48:10.561Z,3.95
2024-05-09T01:50:42.095Z,3.45
2024-05-09T01:53:12.059Z,3.20
2024-05-09T01:55:40.452Z,3.60
2024-05-09T01:58:08.949Z,3.00
2024-05-09T02:00:40.846Z,2.83
2024-05-09T02:05:40.041Z,2.60
2024-05-09T02:08:08.003Z,2.63
2024-05-09T02:10:36.000Z,2.20
2024-05-09T02:13:03.640Z,2.35
2024-05-09T02:15:31.635Z,2.55
2024-05-09T02:17:59.384Z,1.73
2024-05-09T02:20:34.081Z,2.88
2024-05-09T02:23:05.108Z,1.90
2024-05-09T02:25:33.585Z,2.17
2024-05-09T02:28:01.359Z,2.58
2024-05-09T02:30:38.539Z,2.50
2024-05-09T02:33:10.484Z,2.22
2024-05-09T02:35:40.678Z,2.08
2024-05-09T02:38:09.742Z,2.22
2024-05-09T02:40:39.579Z,1.88
2024-05-09T02:43:10.072Z,1.88
2024-05-09T02:45:39.715Z,2.78
2024-05-09T02:48:08.252Z,3.47
2024-05-09T02:50:39.327Z,3.05
2024-05-09T02:53:09.222Z,2.70
2024-05-09T02:55:41.728Z,3.42
2024-05-09T02:58:10.120Z,2.40
2024-05-09T03:00:41.320Z,2.78
2024-05-09T03:03:13.216Z,2.30
2024-05-09T03:05:44.054Z,1.73
2024-05-09T03:08:12.128Z,2.47
2024-05-09T03:10:40.357Z,1.60
2024-05-09T03:13:14.162Z,2.67
2024-05-09T03:15:43.738Z,2.30
2024-05-09T03:18:11.984Z,3.03
2024-05-09T03:20:40.821Z,3.20
2024-05-09T03:23:09.951Z,2.60
2024-05-09T03:25:38.955Z,2.40
2024-05-09T03:28:06.918Z,3.00
2024-05-09T03:30:40.440Z,2.65
2024-05-09T03:33:12.524Z,2.53
2024-05-09T03:35:41.902Z,2.60
2024-05-09T03:38:09.848Z,2.35
2024-05-09T03:40:38.068Z,2.38
2024-05-09T03:43:05.780Z,2.05
2024-05-09T03:45:33.744Z,2.25
2024-05-09T03:48:01.471Z,2.13
2024-05-09T03:50:33.969Z,1.80
2024-05-09T03:53:03.597Z,2.42
2024-05-09T03:55:31.919Z,2.30
2024-05-09T03:57:59.780Z,2.17
2024-05-09T04:00:35.600Z,2.47
2024-05-09T04:03:08.725Z,2.20
2024-05-09T04:05:43.903Z,2.00
2024-05-09T04:08:12.252Z,2.83
2024-05-09T04:10:40.374Z,1.83
2024-05-09T04:13:08.046Z,2.22
2024-05-09T04:15:36.111Z,1.90
2024-05-09T04:18:04.026Z,2.35
2024-05-09T04:20:38.061Z,2.15
2024-05-09T04:23:09.545Z,1.88
2024-05-09T04:25:37.906Z,1.60
2024-05-09T04:28:05.882Z,2.50
2024-05-09T04:30:38.748Z,2.35
2024-05-09T04:33:11.878Z,2.28
2024-05-09T04:35:42.862Z,2.10
2024-05-09T04:38:11.241Z,2.42
2024-05-09T04:40:39.371Z,1.83
2024-05-09T04:43:07.665Z,1.90
2024-05-09T04:45:36.026Z,2.50
2024-05-09T04:48:04.016Z,2.90
2024-05-09T04:50:37.354Z,6.68
2024-05-09T04:53:08.236Z,5.68
2024-05-09T04:55:37.766Z,5.95
2024-05-09T04:58:05.850Z,5.70
2024-05-09T05:00:37.267Z,4.32
2024-05-09T05:03:13.064Z,3.03
2024-05-09T05:05:44.960Z,3.53
2024-05-09T05:08:17.729Z,2.88
2024-05-09T05:10:48.194Z,2.22
2024-05-09T05:13:18.390Z,2.20
2024-05-09T05:15:47.594Z,2.60
2024-05-09T05:18:15.645Z,1.90
2024-05-09T05:20:44.078Z,2.13
2024-05-09T05:23:13.829Z,1.58
2024-05-09T05:25:42.428Z,2.08
2024-05-09T05:28:10.090Z,1.70
2024-05-09T05:30:38.755Z,1.70
2024-05-09T05:33:07.389Z,2.10
2024-05-09T05:35:35.645Z,1.92
2024-05-09T05:38:03.855Z,2.20
2024-05-09T05:40:36.698Z,2.42
2024-05-09T05:43:10.183Z,2.17
2024-05-09T05:45:39.106Z,2.28
2024-05-09T05:48:08.138Z,2.45
2024-05-09T05:50:38.250Z,1.77
2024-05-09T05:53:08.267Z,2.22
2024-05-09T05:55:37.208Z,2.47
2024-05-09T05:58:04.934Z,2.60
2024-05-09T06:00:38.927Z,2.15
2024-05-09T06:03:12.801Z,2.15
2024-05-09T06:05:44.324Z,1.77
2024-05-09T06:08:12.767Z,2.35
2024-05-09T06:10:41.932Z,2.20
2024-05-09T06:13:14.147Z,2.13
2024-05-09T06:15:43.329Z,1.83
2024-05-09T06:18:12.503Z,3.00
2024-05-09T06:20:42.880Z,2.25
2024-05-09T06:23:11.587Z,2.45
2024-05-09T06:25:40.090Z,2.38
2024-05-09T06:28:07.693Z,2.72
2024-05-09T06:30:42.248Z,2.85
2024-05-09T06:33:13.136Z,2.70
2024-05-09T06:35:43.337Z,2.43
2024-05-09T06:38:11.606Z,1.90
2024-05-09T06:40:42.607Z,2.85
2024-05-09T06:43:16.784Z,2.22
2024-05-09T06:45:50.601Z,1.73
2024-05-09T06:48:19.729Z,1.83
2024-05-09T06:50:48.402Z,2.03
2024-05-09T06:53:16.921Z,2.78
2024-05-09T06:55:45.199Z,2.40
2024-05-09T06:58:12.884Z,2.47
2024-05-09T07:00:42.066Z,2.03
2024-05-09T07:03:12.030Z,1.80
2024-05-09T07:05:41.745Z,1.85
2024-05-09T07:08:09.457Z,1.48
2024-05-09T07:10:37.833Z,1.60
2024-05-09T07:13:09.444Z,1.40
2024-05-09T07:15:37.475Z,1.85
2024-05-09T07:18:12.144Z,1.00
2024-05-09T07:20:41.059Z,1.60
2024-05-09T07:23:12.586Z,1.77
2024-05-09T07:25:41.741Z,1.88
2024-05-09T07:28:16.459Z,1.55
2024-05-09T07:30:44.763Z,1.30
2024-05-09T07:33:23.484Z,1.70
2024-05-09T07:35:53.068Z,1.70
2024-05-09T07:38:21.099Z,1.58
2024-05-09T07:40:49.485Z,1.48
2024-05-09T07:43:17.184Z,1.30
2024-05-09T07:45:52.240Z,1.48
2024-05-09T07:52:37.822Z,1.75
2024-05-09T07:53:46.541Z,1.65
2024-05-09T07:56:19.126Z,1.60
2024-05-09T07:58:50.715Z,2.15
2024-05-09T08:01:19.149Z,1.70
2024-05-09T08:03:47.258Z,1.60
2024-05-09T08:06:15.540Z,1.75
2024-05-09T08:08:43.224Z,1.83
2024-05-09T08:11:11.294Z,1.85
2024-05-09T08:13:38.948Z,1.60
2024-05-09T08:16:07.342Z,1.90
2024-05-09T08:18:35.194Z,1.83
2024-05-09T08:21:03.397Z,2.03
2024-05-09T08:23:31.001Z,1.73
2024-05-09T08:25:59.080Z,1.80
2024-05-09T08:28:26.756Z,1.55
2024-05-09T08:30:54.929Z,1.80
2024-05-09T08:33:22.740Z,1.70
2024-05-09T08:35:50.922Z,1.83
2024-05-09T08:38:18.522Z,1.63
2024-05-09T08:40:46.734Z,1.50
2024-05-09T08:43:14.972Z,2.10
2024-05-09T08:45:44.733Z,1.90
2024-05-09T08:48:15.296Z,1.85
2024-05-09T08:50:45.605Z,1.60
2024-05-09T08:53:16.856Z,1.65
2024-05-09T08:55:46.383Z,1.73
2024-05-09T08:58:16.539Z,2.20
2024-05-09T09:00:46.019Z,1.90
2024-05-09T09:03:18.508Z,2.13
2024-05-09T09:06:10.218Z,1.90
2024-05-09T09:08:40.958Z,2.35
2024-05-09T09:11:09.099Z,1.98
2024-05-09T09:13:36.666Z,1.90
2024-05-09T09:16:05.111Z,2.50
2024-05-09T09:18:34.520Z,2.15
2024-05-09T09:21:03.444Z,2.00
2024-05-09T09:23:31.191Z,2.55
2024-05-09T09:26:00.174Z,2.00
2024-05-09T09:28:27.872Z,2.17
2024-05-09T09:31:02.096Z,3.38
2024-05-09T09:33:35.594Z,2.53
2024-05-09T09:36:05.842Z,2.50
2024-05-09T09:38:37.388Z,2.15
2024-05-09T09:41:07.821Z,2.33
2024-05-09T09:43:37.051Z,1.80
2024-05-09T09:46:08.681Z,2.55
2024-05-09T09:48:39.177Z,1.80
2024-05-09T09:51:08.916Z,2.28
2024-05-09T09:53:38.454Z,2.08
2024-05-09T09:56:08.335Z,2.22
2024-05-09T09:58:36.832Z,2.28
2024-05-09T10:01:05.069Z,2.28
2024-05-09T10:03:33.181Z,2.08
2024-05-09T10:06:01.790Z,2.20
2024-05-09T10:08:29.655Z,2.15
2024-05-09T10:10:57.834Z,2.70
2024-05-09T10:13:33.721Z,2.05
2024-05-09T10:16:09.043Z,1.88
2024-05-09T10:18:37.320Z,2.45
2024-05-09T10:21:16.379Z,1.73
2024-05-09T10:24:00.215Z,1.90
2024-05-09T10:26:35.499Z,2.75
2024-05-09T10:29:16.122Z,2.28
2024-05-09T10:31:45.106Z,2.10
2024-05-09T10:34:18.853Z,1.92
2024-05-09T10:36:47.240Z,1.92
2024-05-09T10:39:14.795Z,2.17
2024-05-09T10:41:42.833Z,2.13
2024-05-09T10:44:15.338Z,2.40
2024-05-09T10:46:44.268Z,2.28
2024-05-09T10:49:14.530Z,2.03
2024-05-09T10:51:45.225Z,2.13
2024-05-09T10:54:12.870Z,2.00
2024-05-09T10:56:42.187Z,2.35
2024-05-09T10:59:09.816Z,2.40
2024-05-09T11:01:37.934Z,2.17
2024-05-09T11:04:06.092Z,2.50
2024-05-09T11:06:36.227Z,2.30
2024-05-09T11:09:03.972Z,2.53
2024-05-09T11:11:32.125Z,2.35
2024-05-09T11:13:59.712Z,1.95
2024-05-09T11:16:27.757Z,2.40
2024-05-09T11:18:56.440Z,2.08
2024-05-09T11:21:25.215Z,2.38
2024-05-09T11:23:53.053Z,2.20
2024-05-09T11:26:25.580Z,2.50
2024-05-09T11:28:53.226Z,2.80
2024-05-09T11:31:21.510Z,2.50
2024-05-09T11:33:49.460Z,2.35
2024-05-09T11:36:17.558Z,2.90
2024-05-09T11:38:45.188Z,4.15
2024-05-09T11:41:19.230Z,2.65
2024-05-09T11:43:46.997Z,2.08
2024-05-09T11:46:15.317Z,2.42
2024-05-09T11:48:43.112Z,2.17
2024-05-09T11:51:11.299Z,2.33
2024-05-09T11:53:38.897Z,2.28
2024-05-09T11:56:07.032Z,2.08
2024-05-09T11:58:36.979Z,2.20
2024-05-09T12:01:05.196Z,2.00
2024-05-09T12:03:33.066Z,2.30
2024-05-09T12:06:01.440Z,2.20
2024-05-09T12:08:29.118Z,2.13
2024-05-09T12:10:57.453Z,2.40
2024-05-09T12:13:25.333Z,2.55
2024-05-09T12:15:54.740Z,2.47
2024-05-09T12:18:22.394Z,2.33
2024-05-09T12:20:50.483Z,2.28
2024-05-09T12:23:18.094Z,2.58
2024-05-09T12:25:46.098Z,2.47
2024-05-09T12:28:13.781Z,2.40
2024-05-09T12:30:42.146Z,2.17
2024-05-09T12:33:14.023Z,2.42
2024-05-09T12:35:45.386Z,2.80
2024-05-09T12:38:15.572Z,2.25
2024-05-09T12:40:43.903Z,2.47
2024-05-09T12:43:12.055Z,2.38
2024-05-09T12:45:40.765Z,2.20
2024-05-09T12:48:12.327Z,2.25
2024-05-09T12:50:41.760Z,2.13
2024-05-09T12:53:09.908Z,2.15
2024-05-09T12:55:45.028Z,2.10
2024-05-09T12:58:24.641Z,2.20
2024-05-09T13:00:53.144Z,2.13
2024-05-09T13:03:21.569Z,2.45
2024-05-09T13:05:50.644Z,3.17
2024-05-09T13:08:18.442Z,2.85
2024-05-09T13:10:46.648Z,2.97
2024-05-09T13:13:14.893Z,2.55
2024-05-09T13:15:43.120Z,2.50
2024-05-09T13:18:10.841Z,2.47
2024-05-09T13:20:38.930Z,2.50
2024-05-09T13:23:08.470Z,2.83
2024-05-09T13:25:38.211Z,2.30
2024-05-09T13:28:07.010Z,2.33
2024-05-09T13:30:40.359Z,2.60
2024-05-09T13:33:14.641Z,2.55
2024-05-09T13:35:47.363Z,2.35
2024-05-09T13:38:19.062Z,2.53
2024-05-09T13:40:48.209Z,2.30
2024-05-09T13:43:16.260Z,2.10
2024-05-09T13:45:44.658Z,2.72
2024-05-09T13:48:12.471Z,3.40
2024-05-09T13:50:41.049Z,2.30
2024-05-09T13:53:09.201Z,2.00
2024-05-09T13:55:40.650Z,2.20
2024-05-09T13:58:09.513Z,2.50
2024-05-09T14:00:46.434Z,2.90
2024-05-09T14:03:18.747Z,3.10
2024-05-09T14:05:49.776Z,2.35
2024-05-09T14:08:19.793Z,2.45
2024-05-09T14:10:48.630Z,2.08
2024-05-09T14:13:16.669Z,2.22
2024-05-09T14:15:44.863Z,2.22
2024-05-09T14:18:14.089Z,2.65
2024-05-09T14:20:43.131Z,2.20
2024-05-09T14:23:11.236Z,2.08
2024-05-09T14:25:42.589Z,2.45
2024-05-09T14:28:12.694Z,2.90
2024-05-09T14:30:41.907Z,7.40
2024-05-09T14:33:10.184Z,3.30
2024-05-09T14:35:39.251Z,3.15
2024-05-09T14:38:07.728Z,3.53
2024-05-09T14:40:41.972Z,3.05
2024-05-09T14:43:15.436Z,2.90
2024-05-09T14:45:44.444Z,2.92
2024-05-09T14:48:12.696Z,2.72
2024-05-09T14:50:41.400Z,3.22
2024-05-09T14:53:10.573Z,2.60
2024-05-09T14:55:40.308Z,2.63
2024-05-09T14:58:10.109Z,2.72
2024-05-09T15:00:42.452Z,2.88
2024-05-09T15:03:13.489Z,2.50
2024-05-09T15:05:41.748Z,2.60
2024-05-09T15:08:09.555Z,2.38
2024-05-09T15:10:38.814Z,2.75
2024-05-09T15:13:08.732Z,2.75
2024-05-09T15:15:38.026Z,2.50
2024-05-09T15:18:06.399Z,2.70
2024-05-09T15:20:37.031Z,2.75
2024-05-09T15:23:06.970Z,2.70
2024-05-09T15:25:36.553Z,3.38
2024-05-09T15:28:05.120Z,3.05
2024-05-09T15:30:34.519Z,5.75
2024-05-09T15:33:04.083Z,3.28
2024-05-09T15:35:32.732Z,2.80
2024-05-09T15:38:02.779Z,2.60
2024-05-09T15:40:38.099Z,3.03
2024-05-09T15:43:10.048Z,2.72
2024-05-09T15:45:40.624Z,3.17
2024-05-09T15:48:09.888Z,3.05
2024-05-09T15:50:41.551Z,3.33
2024-05-09T15:53:11.925Z,3.15
2024-05-09T15:55:41.479Z,3.25
2024-05-09T15:58:09.751Z,3.55
2024-05-09T16:00:41.527Z,3.58
2024-05-09T16:05:41.178Z,3.70
2024-05-09T16:08:09.516Z,2.90
2024-05-09T16:10:44.357Z,2.92
2024-05-09T16:13:13.397Z,3.05
2024-05-09T16:15:41.682Z,4.45
2024-05-09T16:18:09.583Z,3.30
2024-05-09T16:20:40.817Z,4.43
2024-05-09T16:23:10.580Z,5.15
2024-05-09T16:25:39.848Z,3.53
2024-05-09T16:28:10.417Z,2.85
2024-05-09T16:30:39.922Z,4.82
2024-05-09T16:33:08.591Z,5.15
2024-05-09T16:35:37.936Z,4.78
2024-05-09T16:38:06.156Z,4.13
2024-05-09T16:40:38.814Z,5.18
2024-05-09T16:43:12.310Z,4.70
2024-05-09T16:45:41.865Z,2.92
2024-05-09T16:48:09.733Z,2.65
2024-05-09T16:50:38.027Z,2.55
2024-05-09T16:53:06.737Z,2.65
2024-05-09T16:55:36.147Z,3.10
2024-05-09T16:58:04.949Z,3.08
2024-05-09T17:00:40.489Z,2.85
2024-05-09T17:03:11.924Z,2.90
2024-05-09T17:05:41.091Z,3.28
2024-05-09T17:08:09.385Z,2.88
2024-05-09T17:10:37.620Z,3.17
2024-05-09T17:13:07.455Z,3.17
2024-05-09T17:15:37.453Z,6.70
2024-05-09T17:18:07.535Z,4.80
2024-05-09T17:20:37.490Z,4.43
2024-05-09T17:23:14.914Z,4.03
2024-05-09T17:25:43.793Z,4.53
2024-05-09T17:28:12.031Z,3.25
2024-05-09T17:30:42.162Z,3.28
2024-05-09T17:33:11.862Z,3.10
2024-05-09T17:35:40.941Z,3.10
2024-05-09T17:38:08.947Z,2.72
2024-05-09T17:40:38.516Z,3.72
2024-05-09T17:43:09.005Z,3.50
2024-05-09T17:45:39.507Z,3.63
2024-05-09T17:48:09.559Z,3.45
2024-05-09T17:50:38.541Z,3.47
2024-05-09T17:53:07.114Z,3.35
2024-05-09T17:55:36.137Z,5.03
2024-05-09T17:58:04.887Z,5.03
2024-05-09T18:00:39.161Z,4.85
2024-05-09T18:03:13.839Z,4.80
2024-05-09T18:05:44.875Z,5.05
2024-05-09T18:08:13.706Z,13.20
2024-05-09T18:10:42.335Z,18.58
2024-05-09T18:13:11.081Z,12.30
2024-05-09T18:15:39.927Z,11.18
2024-05-09T18:18:09.170Z,14.27
2024-05-09T18:20:43.761Z,14.00
2024-05-09T18:23:14.880Z,9.40
2024-05-09T18:25:44.211Z,7.88
2024-05-09T18:28:11.868Z,6.72
2024-05-09T18:30:41.173Z,6.15
2024-05-09T18:33:11.226Z,4.85
2024-05-09T18:35:39.998Z,6.50
2024-05-09T18:38:07.666Z,5.43
2024-05-09T18:40:38.067Z,6.03
2024-05-09T18:43:08.483Z,5.95
2024-05-09T18:45:38.456Z,5.82
2024-05-09T18:48:07.522Z,6.38
2024-05-09T18:50:39.267Z,7.82
2024-05-09T18:53:10.400Z,6.75
2024-05-09T18:55:39.720Z,17.60
2024-05-09T18:58:07.551Z,17.08
2024-05-09T19:00:38.746Z,20.50
2024-05-09T19:03:11.553Z,17.80
2024-05-09T19:05:43.554Z,56.60
2024-05-09T19:08:12.548Z,18.35
2024-05-09T19:10:40.801Z,6.38
2024-05-09T19:13:12.216Z,6.40
2024-05-09T19:15:43.123Z,5.97
2024-05-09T19:18:12.770Z,7.00
2024-05-09T19:20:41.407Z,5.25
2024-05-09T19:23:09.680Z,4.93
2024-05-09T19:25:37.708Z,6.07
2024-05-09T19:28:05.847Z,6.32
2024-05-09T19:30:39.686Z,5.43
2024-05-09T19:33:11.009Z,6.03
2024-05-09T19:35:40.255Z,6.03
2024-05-09T19:38:07.874Z,5.78
2024-05-09T19:40:36.305Z,6.43
2024-05-09T19:43:05.546Z,7.03
2024-05-09T19:45:35.756Z,5.72
2024-05-09T19:48:05.136Z,7.80
2024-05-09T19:50:41.460Z,6.50
2024-05-09T19:53:12.499Z,6.32
2024-05-09T19:55:41.126Z,7.00
2024-05-09T19:58:09.371Z,6.70
2024-05-09T20:00:40.527Z,5.97
2024-05-09T20:03:10.843Z,5.30
2024-05-09T20:05:39.643Z,5.50
2024-05-09T20:08:07.723Z,5.85
2024-05-09T20:10:36.742Z,5.47
2024-05-09T20:13:06.646Z,5.53
2024-05-09T20:15:37.074Z,6.40
2024-05-09T20:18:05.759Z,5.70
2024-05-09T20:20:39.300Z,7.30
2024-05-09T20:23:10.544Z,6.70
2024-05-09T20:25:38.716Z,6.05
2024-05-09T20:28:06.923Z,6.07
2024-05-09T20:30:36.136Z,5.35
2024-05-09T20:33:05.930Z,6.03
2024-05-09T20:35:35.333Z,5.35
2024-05-09T20:38:03.942Z,4.60
2024-05-09T20:40:36.406Z,5.30
2024-05-09T20:43:07.501Z,5.32
2024-05-09T20:45:36.201Z,4.90
2024-05-09T20:48:04.242Z,4.80
2024-05-09T20:50:38.679Z,4.78
2024-05-09T20:53:13.839Z,4.95
2024-05-09T20:55:43.854Z,4.60
2024-05-09T20:58:12.583Z,4.97
2024-05-09T21:00:44.206Z,5.30
2024-05-09T21:03:15.266Z,4.82
2024-05-09T21:05:44.998Z,4.45
2024-05-09T21:08:12.853Z,4.40
2024-05-09T21:10:40.895Z,4.95
2024-05-09T21:13:08.609Z,5.40
2024-05-09T21:15:36.918Z,4.85
2024-05-09T21:18:05.296Z,4.43
2024-05-09T21:20:34.965Z,4.80
2024-05-09T21:23:03.447Z,4.90
2024-05-09T21:25:32.202Z,5.15
2024-05-09T21:28:00.483Z,4.18
2024-05-09T21:30:38.388Z,3.47
2024-05-09T21:33:11.760Z,4.10
2024-05-09T21:35:41.575Z,4.05
2024-05-09T21:38:09.270Z,4.07
2024-05-09T21:40:38.300Z,4.55
2024-05-09T21:43:07.615Z,3.95
2024-05-09T21:45:36.595Z,4.22
2024-05-09T21:48:05.452Z,3.90
2024-05-09T21:50:39.818Z,4.30
2024-05-09T21:53:10.036Z,4.38
2024-05-09T21:55:38.151Z,3.85
2024-05-09T21:58:06.025Z,4.10
2024-05-09T22:00:38.244Z,4.60
2024-05-09T22:03:08.799Z,3.60
2024-05-09T22:05:38.127Z,3.85
2024-05-09T22:08:06.325Z,4.07
2024-05-09T22:10:36.310Z,3.72
2024-05-09T22:13:05.940Z,4.90
2024-05-09T22:15:39.661Z,3.80
2024-05-09T22:18:09.295Z,3.67
2024-05-09T22:20:44.677Z,3.50
2024-05-09T22:23:15.930Z,3.00
2024-05-09T22:25:44.346Z,3.40
2024-05-09T22:28:13.526Z,3.60
2024-05-09T22:30:41.689Z,3.17
2024-05-09T22:33:11.032Z,4.72
2024-05-09T22:35:41.096Z,3.33
2024-05-09T22:38:09.096Z,3.72
2024-05-09T22:40:46.126Z,4.03
2024-05-09T22:43:24.819Z,2.97
2024-05-09T22:45:56.853Z,3.15
2024-05-09T22:48:25.587Z,3.67
2024-05-09T22:50:54.283Z,3.53
2024-05-09T22:53:25.535Z,3.95
2024-05-09T22:55:54.411Z,4.30
2024-05-09T22:58:22.514Z,4.10
2024-05-09T23:00:50.942Z,4.28
2024-05-09T23:03:21.511Z,4.00
2024-05-09T23:05:50.026Z,4.07
2024-05-09T23:08:17.632Z,4.35
2024-05-09T23:10:45.736Z,4.45
2024-05-09T23:13:13.437Z,4.60
2024-05-09T23:15:41.622Z,3.97
2024-05-09T23:18:09.556Z,4.53
2024-05-09T23:20:39.775Z,3.85
2024-05-09T23:23:08.751Z,4.80
2024-05-09T23:25:37.529Z,4.45
2024-05-09T23:28:05.601Z,3.42
2024-05-09T23:30:38.331Z,4.28
2024-05-09T23:33:08.892Z,4.20
2024-05-09T23:35:37.013Z,3.80
2024-05-09T23:38:04.730Z,3.30
2024-05-09T23:43:03.740Z,4.55
2024-05-09T23:45:31.870Z,3.70
2024-05-09T23:47:59.981Z,4.20
2024-05-09T23:50:34.449Z,3.60
2024-05-09T23:53:06.098Z,4.35
2024-05-09T23:55:34.996Z,4.20
2024-05-09T23:58:02.709Z,3.72
